createdAt,value
2023-02-28T00:01:34.446Z,77.52
2023-02-28T00:04:01.315Z,78.91
2023-02-28T00:06:28.281Z,75.56
2023-02-28T00:08:55.230Z,76.52
2023-02-28T00:11:22.652Z,76.31
2023-02-28T00:13:49.593Z,75.61
2023-02-28T00:16:22.006Z,76.01
2023-02-28T00:18:48.951Z,76.47
2023-02-28T00:21:16.865Z,76.90
2023-02-28T00:24:05.310Z,77.78
2023-02-28T00:26:32.444Z,79.66
2023-02-28T00:28:59.289Z,78.55
2023-02-28T00:31:26.599Z,76.91
2023-02-28T00:33:53.607Z,79.42
2023-02-28T00:36:21.263Z,77.81
2023-02-28T00:38:47.996Z,78.36
2023-02-28T00:41:14.753Z,78.94
2023-02-28T00:43:41.510Z,79.70
2023-02-28T00:46:09.113Z,78.60
2023-02-28T00:48:35.875Z,79.62
2023-02-28T00:51:03.714Z,80.21
2023-02-28T00:53:33.443Z,81.80
2023-02-28T00:56:00.196Z,80.39
2023-02-28T00:58:27.678Z,80.54
2023-02-28T01:00:55.187Z,83.07
2023-02-28T01:03:23.530Z,82.57
2023-02-28T01:05:50.529Z,80.45
2023-02-28T01:08:17.481Z,83.03
2023-02-28T01:10:44.324Z,82.70
2023-02-28T01:13:12.471Z,80.56
2023-02-28T01:15:43.309Z,79.95
2023-02-28T01:18:11.385Z,82.82
2023-02-28T01:20:39.266Z,82.92
2023-02-28T01:23:06.092Z,82.29
2023-02-28T01:25:38.105Z,82.44
2023-02-28T01:28:06.742Z,83.17
2023-02-28T01:30:34.602Z,81.97
2023-02-28T01:33:01.694Z,81.69
2023-02-28T01:35:28.410Z,81.91
2023-02-28T01:37:55.273Z,81.53
2023-02-28T01:40:22.020Z,82.91
2023-02-28T01:42:48.723Z,83.14
2023-02-28T01:45:32.556Z,82.63
2023-02-28T01:48:01.673Z,82.49
2023-02-28T01:50:31.369Z,83.63
2023-02-28T01:53:01.842Z,83.33
2023-02-28T01:55:32.294Z,84.20
2023-02-28T01:58:01.641Z,84.58
2023-02-28T02:00:30.281Z,89.47
2023-02-28T02:03:00.262Z,85.36
2023-02-28T02:05:32.039Z,86.51
2023-02-28T02:08:06.450Z,85.74
2023-02-28T02:10:55.117Z,83.58
2023-02-28T02:13:41.420Z,86.08
2023-02-28T02:16:29.491Z,86.71
2023-02-28T02:19:33.732Z,86.73
2023-02-28T02:22:03.330Z,85.20
2023-02-28T02:24:48.785Z,85.23
2023-02-28T02:27:37.351Z,87.19
2023-02-28T02:30:45.062Z,88.03
2023-02-28T02:33:32.075Z,86.92
2023-02-28T02:36:04.322Z,88.41
2023-02-28T02:38:40.080Z,90.73
2023-02-28T02:41:20.109Z,91.63
2023-02-28T02:44:13.148Z,90.93
2023-02-28T02:46:43.796Z,89.96
2023-02-28T02:49:22.867Z,90.77
2023-02-28T02:51:50.197Z,91.26
2023-02-28T02:54:21.949Z,91.93
2023-02-28T02:56:50.777Z,90.64
2023-02-28T02:59:22.298Z,89.42
2023-02-28T03:02:01.486Z,89.20
2023-02-28T03:04:32.531Z,90.30
2023-02-28T03:06:59.361Z,89.43
2023-02-28T03:09:27.515Z,88.04
2023-02-28T03:11:56.802Z,88.01
2023-02-28T03:14:34.329Z,86.17
2023-02-28T03:17:13.217Z,87.89
2023-02-28T03:20:08.372Z,91.03
2023-02-28T03:23:24.906Z,90.29
2023-02-28T03:26:07.487Z,88.53
2023-02-28T03:28:40.194Z,87.74
2023-02-28T03:31:13.530Z,87.53
2023-02-28T03:33:44.709Z,87.40
2023-02-28T03:36:15.206Z,87.75
2023-02-28T03:39:05.260Z,87.99
2023-02-28T03:41:53.088Z,88.09
2023-02-28T03:44:29.359Z,87.18
2023-02-28T03:47:09.990Z,87.16
2023-02-28T03:49:44.671Z,88.01
2023-02-28T03:52:11.483Z,86.67
2023-02-28T03:54:48.134Z,88.66
2023-02-28T03:57:44.994Z,88.67
2023-02-28T04:00:22.860Z,89.26
2023-02-28T04:02:53.561Z,89.90
2023-02-28T04:05:21.732Z,88.78
2023-02-28T04:07:49.291Z,90.02
2023-02-28T04:10:17.159Z,88.98
2023-02-28T04:12:43.883Z,88.24
2023-02-28T04:15:12.227Z,87.25
2023-02-28T04:17:39.200Z,87.96
2023-02-28T04:20:10.554Z,87.73
2023-02-28T04:22:38.372Z,87.83
2023-02-28T04:25:06.888Z,87.70
2023-02-28T04:27:33.834Z,86.49
2023-02-28T04:30:00.771Z,87.35
2023-02-28T04:32:27.585Z,87.66
2023-02-28T04:34:54.397Z,86.59
2023-02-28T04:37:21.319Z,86.91
2023-02-28T04:39:48.084Z,87.54
2023-02-28T04:42:15.502Z,90.92
2023-02-28T04:44:42.356Z,91.10
2023-02-28T04:47:09.147Z,91.24
2023-02-28T04:49:36.134Z,90.66
2023-02-28T04:52:02.917Z,89.11
2023-02-28T04:54:30.217Z,89.64
2023-02-28T04:56:57.083Z,89.08
2023-02-28T04:59:23.977Z,89.39
2023-02-28T05:01:50.971Z,91.48
2023-02-28T05:04:18.133Z,90.51
2023-02-28T05:06:45.006Z,90.61
2023-02-28T05:09:14.540Z,91.13
2023-02-28T05:11:41.808Z,91.66
2023-02-28T05:14:13.071Z,91.23
2023-02-28T05:16:40.441Z,91.30
2023-02-28T05:19:07.298Z,91.92
2023-02-28T05:21:36.108Z,90.13
2023-02-28T05:24:05.996Z,89.86
2023-02-28T05:26:35.948Z,91.29
2023-02-28T05:29:03.015Z,91.54
2023-02-28T05:31:29.957Z,93.80
2023-02-28T05:33:56.746Z,93.30
2023-02-28T05:36:23.783Z,91.90
2023-02-28T05:38:51.502Z,93.97
2023-02-28T05:41:20.439Z,93.24
2023-02-28T05:43:48.031Z,93.82
2023-02-28T05:46:14.984Z,92.94
2023-02-28T05:48:43.255Z,94.48
2023-02-28T05:51:10.528Z,94.79
2023-02-28T05:53:37.258Z,94.07
2023-02-28T05:56:04.885Z,93.38
2023-02-28T05:58:32.219Z,91.17
2023-02-28T06:01:00.112Z,93.33
2023-02-28T06:03:27.401Z,91.32
2023-02-28T06:05:54.453Z,91.76
2023-02-28T06:08:21.380Z,91.68
2023-02-28T06:10:48.174Z,91.13
2023-02-28T06:13:15.291Z,90.61
2023-02-28T06:15:42.483Z,89.78
2023-02-28T06:18:09.464Z,90.75
2023-02-28T06:20:37.282Z,92.91
2023-02-28T06:23:04.326Z,93.25
2023-02-28T06:25:31.105Z,93.61
2023-02-28T06:27:57.992Z,95.21
2023-02-28T06:30:26.343Z,94.36
2023-02-28T06:32:53.850Z,93.57
2023-02-28T06:35:20.980Z,95.18
2023-02-28T06:37:48.289Z,94.84
2023-02-28T06:40:15.890Z,95.46
2023-02-28T06:42:42.944Z,94.71
2023-02-28T06:45:10.788Z,94.39
2023-02-28T06:47:39.670Z,95.92
2023-02-28T06:50:08.351Z,95.91
2023-02-28T06:52:37.183Z,96.40
2023-02-28T06:55:06.448Z,94.95
2023-02-28T06:57:34.418Z,96.43
2023-02-28T07:00:02.874Z,94.83
2023-02-28T07:02:29.772Z,97.25
2023-02-28T07:04:56.569Z,100.00
2023-02-28T07:07:23.395Z,99.25
2023-02-28T07:09:50.233Z,97.56
2023-02-28T07:12:17.704Z,99.22
2023-02-28T07:14:44.376Z,100.00
2023-02-28T07:17:13.261Z,98.99
2023-02-28T07:19:40.316Z,99.03
2023-02-28T07:22:07.879Z,100.00
2023-02-28T07:24:34.976Z,99.87
2023-02-28T07:27:02.535Z,100.00
2023-02-28T07:29:29.438Z,98.39
2023-02-28T07:31:56.637Z,98.64
2023-02-28T07:34:23.742Z,99.53
2023-02-28T07:36:54.523Z,98.83
2023-02-28T07:39:33.986Z,98.52
2023-02-28T07:42:01.275Z,98.22
2023-02-28T07:44:30.649Z,98.28
2023-02-28T07:46:57.606Z,98.21
2023-02-28T07:49:24.558Z,96.64
2023-02-28T07:51:53.906Z,97.58
2023-02-28T07:54:20.557Z,99.41
2023-02-28T07:56:48.489Z,100.00
2023-02-28T07:59:15.211Z,96.82
2023-02-28T08:01:42.007Z,98.68
2023-02-28T08:04:08.677Z,84.72
2023-02-28T08:06:36.280Z,63.35
2023-02-28T08:09:02.989Z,52.70
2023-02-28T08:11:30.054Z,49.65
2023-02-28T08:13:56.992Z,44.00
2023-02-28T08:16:23.804Z,39.12
2023-02-28T08:18:52.303Z,37.08
2023-02-28T08:21:19.911Z,36.79
2023-02-28T08:23:50.802Z,34.15
2023-02-28T08:26:18.727Z,34.37
2023-02-28T08:28:45.723Z,36.16
2023-02-28T08:31:15.368Z,39.02
2023-02-28T08:33:43.106Z,38.86
2023-02-28T08:36:10.225Z,37.42
2023-02-28T08:38:37.895Z,38.61
2023-02-28T08:41:08.256Z,41.92
2023-02-28T08:43:35.715Z,40.55
2023-02-28T08:46:02.914Z,43.06
2023-02-28T08:48:31.885Z,45.45
2023-02-28T08:51:07.540Z,48.02
2023-02-28T08:53:34.758Z,47.55
2023-02-28T08:56:03.751Z,49.61
2023-02-28T08:58:30.902Z,49.88
2023-02-28T09:00:58.114Z,50.56
2023-02-28T09:03:25.431Z,51.12
2023-02-28T09:05:59.997Z,51.18
2023-02-28T09:08:28.400Z,51.42
2023-02-28T09:10:58.103Z,52.06
2023-02-28T09:13:26.214Z,53.44
2023-02-28T09:15:53.900Z,54.00
2023-02-28T09:18:21.114Z,53.94
2023-02-28T09:20:47.826Z,53.64
2023-02-28T09:23:14.515Z,52.48
2023-02-28T09:25:48.407Z,52.75
2023-02-28T09:28:17.766Z,52.24
2023-02-28T09:30:50.597Z,51.69
2023-02-28T09:33:18.559Z,50.58
2023-02-28T09:35:45.478Z,49.65
2023-02-28T09:38:13.035Z,50.27
2023-02-28T09:40:56.891Z,49.33
2023-02-28T09:43:27.158Z,48.50
2023-02-28T09:46:01.841Z,48.08
2023-02-28T09:48:33.720Z,49.33
2023-02-28T09:51:16.275Z,49.88
2023-02-28T09:53:45.725Z,49.42
2023-02-28T09:56:26.855Z,47.93
2023-02-28T09:59:02.733Z,47.48
2023-02-28T10:01:38.558Z,46.96
2023-02-28T10:04:26.073Z,46.51
2023-02-28T10:06:54.227Z,47.28
2023-02-28T10:09:27.181Z,45.85
2023-02-28T10:11:56.966Z,45.10
2023-02-28T10:14:30.377Z,45.94
2023-02-28T10:17:06.954Z,46.41
2023-02-28T10:19:48.597Z,45.29
2023-02-28T10:22:19.256Z,46.46
2023-02-28T10:25:05.082Z,45.84
2023-02-28T10:27:33.994Z,45.48
2023-02-28T10:30:03.036Z,46.70
2023-02-28T10:32:35.202Z,46.26
2023-02-28T10:35:11.245Z,46.90
2023-02-28T10:37:39.906Z,46.30
2023-02-28T10:40:09.654Z,46.16
2023-02-28T10:42:39.896Z,46.00
2023-02-28T10:45:08.148Z,45.74
2023-02-28T10:47:36.272Z,45.60
2023-02-28T10:50:03.618Z,44.67
2023-02-28T10:52:48.403Z,43.61
2023-02-28T10:55:26.442Z,43.93
2023-02-28T10:57:53.675Z,44.80
2023-02-28T11:00:26.928Z,44.51
2023-02-28T11:02:54.400Z,44.68
2023-02-28T11:05:31.389Z,43.67
2023-02-28T11:08:03.268Z,44.17
2023-02-28T11:10:32.469Z,43.89
2023-02-28T11:13:01.017Z,42.68
2023-02-28T11:15:34.455Z,43.46
2023-02-28T11:18:03.814Z,43.21
2023-02-28T11:20:32.477Z,42.89
2023-02-28T11:23:02.051Z,43.23
2023-02-28T11:25:30.429Z,42.31
2023-02-28T11:28:05.725Z,42.83
2023-02-28T11:30:43.103Z,41.91
2023-02-28T11:33:29.578Z,41.23
2023-02-28T11:36:09.488Z,41.61
2023-02-28T11:38:37.110Z,41.52
2023-02-28T11:41:08.435Z,41.19
2023-02-28T11:43:57.298Z,41.80
2023-02-28T11:46:49.135Z,41.09
2023-02-28T11:49:39.528Z,41.16
2023-02-28T11:52:16.363Z,40.60
2023-02-28T11:55:07.865Z,40.29
2023-02-28T11:57:45.839Z,41.47
2023-02-28T12:00:18.461Z,40.63
2023-02-28T12:03:01.341Z,40.84
2023-02-28T12:05:34.495Z,41.34
2023-02-28T12:08:25.741Z,41.14
2023-02-28T12:11:02.585Z,41.17
2023-02-28T12:14:04.783Z,41.31
2023-02-28T12:16:56.003Z,39.74
2023-02-28T12:19:22.688Z,40.38
2023-02-28T12:22:11.349Z,39.82
2023-02-28T12:24:53.065Z,40.57
2023-02-28T12:27:25.838Z,40.32
2023-02-28T12:30:04.915Z,40.64
2023-02-28T12:32:38.467Z,40.09
2023-02-28T12:35:11.118Z,41.32
2023-02-28T12:37:44.082Z,41.09
2023-02-28T12:40:39.071Z,40.71
2023-02-28T12:43:12.143Z,39.88
2023-02-28T12:45:45.233Z,39.02
2023-02-28T12:48:40.201Z,40.10
2023-02-28T12:51:08.422Z,39.25
2023-02-28T12:53:56.434Z,39.27
2023-02-28T12:56:31.494Z,39.28
2023-02-28T12:59:03.066Z,39.75
2023-02-28T13:01:30.195Z,39.42
2023-02-28T13:04:28.097Z,39.37
2023-02-28T13:07:25.922Z,38.72
2023-02-28T13:09:54.466Z,40.10
2023-02-28T13:12:23.794Z,39.59
2023-02-28T13:14:51.312Z,39.64
2023-02-28T13:17:22.459Z,39.70
2023-02-28T13:19:55.340Z,40.12
2023-02-28T13:22:42.118Z,38.97
2023-02-28T13:25:35.897Z,39.29
2023-02-28T13:28:10.068Z,39.26
2023-02-28T13:30:52.913Z,39.11
2023-02-28T13:33:28.913Z,39.86
2023-02-28T13:36:17.104Z,39.33
2023-02-28T13:38:49.026Z,39.72
2023-02-28T13:41:36.938Z,39.51
2023-02-28T13:44:07.076Z,39.82
2023-02-28T13:46:37.038Z,39.54
2023-02-28T13:49:33.333Z,39.55
2023-02-28T13:52:19.068Z,39.69
2023-02-28T13:55:17.163Z,40.11
2023-02-28T13:58:13.841Z,40.07
2023-02-28T14:00:57.268Z,39.74
2023-02-28T14:03:49.009Z,40.55
2023-02-28T14:06:19.051Z,39.94
2023-02-28T14:08:56.743Z,40.11
2023-02-28T14:11:30.229Z,39.06
2023-02-28T14:13:57.162Z,39.77
2023-02-28T14:16:31.164Z,40.10
2023-02-28T14:19:16.950Z,40.24
2023-02-28T14:22:05.414Z,40.63
2023-02-28T14:24:40.036Z,39.98
2023-02-28T14:27:22.050Z,39.99
2023-02-28T14:29:51.951Z,40.42
2023-02-28T14:32:43.502Z,39.70
2023-02-28T14:35:23.876Z,40.74
2023-02-28T14:37:51.119Z,41.59
2023-02-28T14:40:22.954Z,41.38
2023-02-28T14:43:03.200Z,41.70
2023-02-28T14:45:31.865Z,41.43
2023-02-28T14:47:59.859Z,41.07
2023-02-28T14:50:37.246Z,40.88
2023-02-28T14:53:04.791Z,40.61
2023-02-28T14:55:36.407Z,40.07
2023-02-28T14:58:07.833Z,40.70
2023-02-28T15:00:47.812Z,40.65
2023-02-28T15:03:29.496Z,40.36
2023-02-28T15:06:00.709Z,40.61
2023-02-28T15:08:30.203Z,40.52
2023-02-28T15:11:24.806Z,40.16
2023-02-28T15:13:54.225Z,41.10
2023-02-28T15:16:39.802Z,40.97
2023-02-28T15:19:09.264Z,40.42
2023-02-28T15:21:39.146Z,40.25
2023-02-28T15:24:10.107Z,41.07
2023-02-28T15:26:40.921Z,41.01
2023-02-28T15:29:21.343Z,40.90
2023-02-28T15:32:05.019Z,41.46
2023-02-28T15:34:42.947Z,42.00
2023-02-28T15:37:31.642Z,42.52
2023-02-28T15:40:19.088Z,41.46
2023-02-28T15:43:06.118Z,42.32
2023-02-28T15:45:42.281Z,42.48
2023-02-28T15:48:27.427Z,42.36
2023-02-28T15:50:59.656Z,42.00
2023-02-28T15:53:33.207Z,42.46
2023-02-28T15:56:06.947Z,42.26
2023-02-28T15:58:34.304Z,42.37
2023-02-28T16:01:06.349Z,42.28
2023-02-28T16:03:46.636Z,42.63
2023-02-28T16:06:36.137Z,42.66
2023-02-28T16:09:05.216Z,42.41
2023-02-28T16:11:33.031Z,42.60
2023-02-28T16:13:59.946Z,42.43
2023-02-28T16:16:27.369Z,42.33
2023-02-28T16:18:54.583Z,42.70
2023-02-28T16:21:21.618Z,42.51
2023-02-28T16:23:48.322Z,41.53
2023-02-28T16:26:21.078Z,42.48
2023-02-28T16:28:48.233Z,42.74
2023-02-28T16:31:17.560Z,42.93
2023-02-28T16:33:45.929Z,42.28
2023-02-28T16:36:20.286Z,42.15
2023-02-28T16:38:47.335Z,42.07
2023-02-28T16:41:19.965Z,42.04
2023-02-28T16:43:51.651Z,42.45
2023-02-28T16:46:18.579Z,42.28
2023-02-28T16:48:46.252Z,42.32
2023-02-28T16:51:16.811Z,41.93
2023-02-28T16:53:44.753Z,42.53
2023-02-28T16:56:17.915Z,42.26
2023-02-28T16:58:45.132Z,42.54
2023-02-28T17:01:12.229Z,42.80
2023-02-28T17:03:41.168Z,42.88
2023-02-28T17:06:24.295Z,42.32
2023-02-28T17:08:52.202Z,43.18
2023-02-28T17:11:19.922Z,43.32
2023-02-28T17:13:47.201Z,43.20
2023-02-28T17:16:34.550Z,42.80
2023-02-28T17:19:04.606Z,42.56
2023-02-28T17:21:32.285Z,42.69
2023-02-28T17:23:59.349Z,42.96
2023-02-28T17:26:26.961Z,42.91
2023-02-28T17:28:56.713Z,42.55
2023-02-28T17:31:27.437Z,42.90
2023-02-28T17:33:57.679Z,42.43
2023-02-28T17:36:27.361Z,42.77
2023-02-28T17:38:56.305Z,42.36
2023-02-28T17:41:23.232Z,43.54
2023-02-28T17:43:51.575Z,43.20
2023-02-28T17:46:21.733Z,42.94
2023-02-28T17:48:53.422Z,43.16
2023-02-28T17:51:22.861Z,42.76
2023-02-28T17:53:50.177Z,43.62
2023-02-28T17:56:20.426Z,43.61
2023-02-28T17:58:47.384Z,43.75
2023-02-28T18:01:14.131Z,43.23
2023-02-28T18:03:41.110Z,43.55
2023-02-28T18:06:08.238Z,44.16
2023-02-28T18:08:36.494Z,44.57
2023-02-28T18:11:03.261Z,44.39
2023-02-28T18:13:30.034Z,44.38
2023-02-28T18:15:56.764Z,43.86
2023-02-28T18:18:23.745Z,43.59
2023-02-28T18:20:50.833Z,43.59
2023-02-28T18:23:19.360Z,44.31
2023-02-28T18:25:46.117Z,44.79
2023-02-28T18:28:12.942Z,43.81
2023-02-28T18:30:39.938Z,43.83
2023-02-28T18:33:06.853Z,43.99
2023-02-28T18:35:36.689Z,43.36
2023-02-28T18:38:11.472Z,44.72
2023-02-28T18:40:39.563Z,43.61
2023-02-28T18:43:06.696Z,43.72
2023-02-28T18:45:36.576Z,44.10
2023-02-28T18:48:03.599Z,43.22
2023-02-28T18:50:30.282Z,43.52
2023-02-28T18:52:59.209Z,43.43
2023-02-28T18:55:27.836Z,43.76
2023-02-28T18:57:54.902Z,44.29
2023-02-28T19:00:22.789Z,44.09
2023-02-28T19:02:50.658Z,43.91
2023-02-28T19:05:18.636Z,44.75
2023-02-28T19:07:46.138Z,44.36
2023-02-28T19:10:13.536Z,44.89
2023-02-28T19:12:42.888Z,44.30
2023-02-28T19:15:10.793Z,45.21
2023-02-28T19:17:38.778Z,44.75
2023-02-28T19:20:07.331Z,44.46
2023-02-28T19:22:34.282Z,45.00
2023-02-28T19:25:01.425Z,44.52
2023-02-28T19:27:28.071Z,44.45
2023-02-28T19:29:55.595Z,44.70
2023-02-28T19:32:22.483Z,45.17
2023-02-28T19:34:49.330Z,45.42
2023-02-28T19:37:16.310Z,45.77
2023-02-28T19:39:46.432Z,45.60
2023-02-28T19:42:16.216Z,45.84
2023-02-28T19:44:43.867Z,45.57
2023-02-28T19:47:11.271Z,45.93
2023-02-28T19:49:38.650Z,45.44
2023-02-28T19:52:05.795Z,46.00
2023-02-28T19:54:32.702Z,46.16
2023-02-28T19:56:59.399Z,46.90
2023-02-28T19:59:38.245Z,46.77
2023-02-28T20:02:06.860Z,46.90
2023-02-28T20:04:33.532Z,46.52
2023-02-28T20:07:00.278Z,46.99
2023-02-28T20:09:31.831Z,46.51
2023-02-28T20:12:01.599Z,46.97
2023-02-28T20:14:28.403Z,47.57
2023-02-28T20:16:57.222Z,46.77
2023-02-28T20:19:25.259Z,47.25
2023-02-28T20:21:52.155Z,47.15
2023-02-28T20:24:20.766Z,47.11
2023-02-28T20:26:47.606Z,47.43
2023-02-28T20:29:14.356Z,46.96
2023-02-28T20:31:41.446Z,47.17
2023-02-28T20:34:08.717Z,47.56
2023-02-28T20:36:35.804Z,47.28
2023-02-28T20:39:03.130Z,48.07
2023-02-28T20:41:29.801Z,47.33
2023-02-28T20:43:58.412Z,47.78
2023-02-28T20:46:26.118Z,47.41
2023-02-28T20:48:52.820Z,47.60
2023-02-28T20:51:19.852Z,48.40
2023-02-28T20:53:46.648Z,48.68
2023-02-28T20:56:16.222Z,48.14
2023-02-28T20:58:45.158Z,48.54
2023-02-28T21:01:26.275Z,49.15
2023-02-28T21:04:02.141Z,49.81
2023-02-28T21:06:34.997Z,49.13
2023-02-28T21:09:01.826Z,50.07
2023-02-28T21:11:30.888Z,51.33
2023-02-28T21:14:02.758Z,51.18
2023-02-28T21:16:30.552Z,51.60
2023-02-28T21:19:03.912Z,51.52
2023-02-28T21:21:39.558Z,50.65
2023-02-28T21:24:06.815Z,51.08
2023-02-28T21:26:33.833Z,51.32
2023-02-28T21:29:02.517Z,50.27
2023-02-28T21:31:31.978Z,50.13
2023-02-28T21:34:00.143Z,50.99
2023-02-28T21:36:32.797Z,50.92
2023-02-28T21:39:05.702Z,50.44
2023-02-28T21:41:32.576Z,51.05
2023-02-28T21:43:59.251Z,50.42
2023-02-28T21:46:28.377Z,50.95
2023-02-28T21:48:55.851Z,50.51
2023-02-28T21:51:25.365Z,50.80
2023-02-28T21:53:52.745Z,50.80
2023-02-28T21:56:27.092Z,51.12
2023-02-28T21:59:12.424Z,51.56
2023-02-28T22:01:41.002Z,52.84
2023-02-28T22:04:10.066Z,52.20
2023-02-28T22:06:41.536Z,51.03
2023-02-28T22:09:09.942Z,51.05
2023-02-28T22:11:38.436Z,51.28
2023-02-28T22:14:06.734Z,51.81
2023-02-28T22:16:50.217Z,51.89
2023-02-28T22:19:18.658Z,53.63
2023-02-28T22:21:46.796Z,53.85
2023-02-28T22:24:14.687Z,53.31
2023-02-28T22:26:41.642Z,52.90
2023-02-28T22:29:08.470Z,52.40
2023-02-28T22:31:36.183Z,52.88
2023-02-28T22:34:06.568Z,53.78
2023-02-28T22:36:33.576Z,53.70
2023-02-28T22:39:01.068Z,53.99
2023-02-28T22:41:29.586Z,55.19
2023-02-28T22:43:59.856Z,54.08
2023-02-28T22:46:28.288Z,54.91
2023-02-28T22:48:55.524Z,54.30
2023-02-28T22:51:25.281Z,54.68
2023-02-28T22:53:53.589Z,55.08
2023-02-28T22:56:22.117Z,55.38
2023-02-28T22:58:50.646Z,54.83
2023-02-28T23:01:18.719Z,55.08
2023-02-28T23:03:45.567Z,54.84
2023-02-28T23:06:25.087Z,54.86
2023-02-28T23:08:55.142Z,55.58
2023-02-28T23:11:29.291Z,55.14
2023-02-28T23:13:58.953Z,55.67
2023-02-28T23:16:30.741Z,55.52
2023-02-28T23:18:59.289Z,56.40
2023-02-28T23:21:27.085Z,55.70
2023-02-28T23:23:54.717Z,55.73
2023-02-28T23:26:21.551Z,56.06
2023-02-28T23:28:48.371Z,56.34
2023-02-28T23:31:15.699Z,56.94
2023-02-28T23:33:42.452Z,56.38
2023-02-28T23:36:14.084Z,57.64
2023-02-28T23:38:42.252Z,57.01
2023-02-28T23:41:10.012Z,57.71
2023-02-28T23:43:36.930Z,57.83
2023-02-28T23:46:04.339Z,56.67
2023-02-28T23:48:31.252Z,58.94
2023-02-28T23:51:08.801Z,60.73
2023-02-28T23:53:38.235Z,58.69
2023-02-28T23:56:09.677Z,58.14
2023-02-28T23:58:36.855Z,59.33
